Time;durP1;ratioP1;P1;durP2;ratioP2;P2;SDS_P1;SDS_P2;PMS_P1;PMS_P2;Temp;Humidity;BMP_temperature;BMP_pressure;BME280_temperature;BME280_humidity;BME280_pressure;Samples;Min_cycle;Max_cycle;Signal;HPM_P1;HPM_P2
2021/01/15 05:02:33;;;;;;;11.70;7.18;;;1.40;99.90;;;;;;4998536;23;20420;-68
2021/01/15 05:05:02;;;;;;;13.50;8.10;;;1.40;99.90;;;;;;4937478;29;20202;-67
2021/01/15 05:07:30;;;;;;;11.13;8.02;;;1.40;99.90;;;;;;4937607;28;20309;-67
2021/01/15 05:09:57;;;;;;;13.73;7.95;;;1.40;99.90;;;;;;4938000;29;20214;-67
2021/01/15 05:12:30;;;;;;;14.07;7.63;;;1.40;99.90;;;;;;4920117;29;20245;-67
2021/01/15 05:14:57;;;;;;;11.63;8.32;;;1.40;99.90;;;;;;4921821;29;20202;-67
2021/01/15 05:17:27;;;;;;;11.52;6.90;;;1.40;99.90;;;;;;4918990;29;20219;-68
2021/01/15 05:19:55;;;;;;;12.68;7.57;;;1.40;99.90;;;;;;4929033;29;20209;-69
2021/01/15 05:22:21;;;;;;;9.38;7.13;;;1.40;99.90;;;;;;4918759;29;20226;-68
2021/01/15 05:24:48;;;;;;;13.60;8.88;;;1.40;99.90;;;;;;4925993;29;20199;-68
2021/01/15 05:30:18;;;;;;;12.27;7.05;;;1.40;99.90;;;;;;4929992;29;20212;-68
2021/01/15 05:32:45;;;;;;;8.55;6.72;;;1.40;99.90;;;;;;4937405;29;20702;-69
2021/01/15 05:35:13;;;;;;;11.68;7.85;;;1.40;99.90;;;;;;4927748;28;20525;-67
2021/01/15 05:37:39;;;;;;;10.25;7.88;;;1.40;99.90;;;;;;4928826;29;20205;-68
2021/01/15 05:40:07;;;;;;;16.88;7.45;;;1.40;99.90;;;;;;4930355;29;20258;-68
2021/01/15 05:42:46;;;;;;;13.73;8.23;;;1.40;99.90;;;;;;4921564;29;20207;-68
2021/01/15 05:45:16;;;;;;;14.30;8.80;;;1.40;99.90;;;;;;4924661;29;20206;-68
2021/01/15 05:47:43;;;;;;;13.25;7.88;;;1.40;99.90;;;;;;4918440;29;20217;-68
2021/01/15 05:50:12;;;;;;;9.38;8.38;;;1.40;99.90;;;;;;4923704;29;20214;-68
2021/01/15 05:52:52;;;;;;;13.40;8.80;;;1.40;99.90;;;;;;4923173;29;20198;-67
2021/01/15 05:55:20;;;;;;;14.93;9.48;;;1.40;99.90;;;;;;4930274;29;20282;-68
2021/01/15 05:57:48;;;;;;;14.18;8.43;;;1.40;99.90;;;;;;4936967;29;20585;-67
2021/01/15 06:00:33;;;;;;;14.18;8.88;;;1.40;99.90;;;;;;4930980;29;20291;-68
2021/01/15 06:03:04;;;;;;;13.40;8.45;;;1.40;99.90;;;;;;4911160;29;20194;-67
2021/01/15 06:05:33;;;;;;;10.50;7.65;;;1.40;99.90;;;;;;4929561;29;20210;-67
2021/01/15 06:08:00;;;;;;;11.32;8.68;;;1.40;99.90;;;;;;4936394;29;20311;-67
2021/01/15 06:10:27;;;;;;;11.10;7.85;;;1.40;99.90;;;;;;4931317;29;20253;-68
2021/01/15 06:12:53;;;;;;;11.85;8.15;;;1.40;99.90;;;;;;4917505;29;20306;-67
2021/01/15 06:15:20;;;;;;;11.55;7.53;;;1.40;99.90;;;;;;4925576;29;20254;-67
2021/01/15 06:17:50;;;;;;;16.40;8.02;;;1.40;99.90;;;;;;4936582;29;20265;-68
2021/01/15 06:20:18;;;;;;;10.75;8.00;;;1.40;99.90;;;;;;4934899;29;20202;-68
2021/01/15 06:22:48;;;;;;;15.05;8.82;;;1.40;99.90;;;;;;4917326;29;20215;-68
2021/01/15 06:25:18;;;;;;;14.30;8.30;;;1.40;99.90;;;;;;4918542;29;20210;-68
2021/01/15 06:27:46;;;;;;;15.20;9.27;;;1.40;99.90;;;;;;4918474;29;20242;-69
2021/01/15 06:30:15;;;;;;;13.88;7.50;;;1.40;99.90;;;;;;4927307;29;20224;-68
2021/01/15 06:32:42;;;;;;;12.65;8.57;;;1.40;99.90;;;;;;4917884;29;20211;-67
2021/01/15 06:35:22;;;;;;;10.98;7.10;;;1.40;99.90;;;;;;4914726;29;20272;-68
2021/01/15 06:37:58;;;;;;;11.82;7.28;;;1.40;99.90;;;;;;4929227;29;20206;-67
2021/01/15 06:40:30;;;;;;;8.40;7.13;;;1.40;99.90;;;;;;4918145;29;20211;-68
2021/01/15 06:42:58;;;;;;;11.63;7.53;;;1.40;99.90;;;;;;4928382;29;20222;-68
2021/01/15 06:45:25;;;;;;;9.95;7.57;;;1.40;99.90;;;;;;4925949;29;20337;-70
2021/01/15 06:47:54;;;;;;;10.80;7.47;;;1.40;99.90;;;;;;4929523;29;20628;-69
2021/01/15 06:50:20;;;;;;;10.05;7.32;;;1.40;99.90;;;;;;4924157;29;20670;-70
2021/01/15 06:52:49;;;;;;;9.95;6.40;;;1.40;99.90;;;;;;4928617;29;20209;-70
2021/01/15 06:55:18;;;;;;;13.50;9.18;;;1.40;99.90;;;;;;4924818;29;20210;-70
2021/01/15 06:57:48;;;;;;;8.23;6.78;;;1.40;99.90;;;;;;4930002;29;20659;-68
2021/01/15 07:00:22;;;;;;;10.43;7.78;;;1.40;99.90;;;;;;4923470;29;20670;-69
2021/01/15 07:03:40;;;;;;;8.15;6.78;;;1.40;99.90;;;;;;4904403;29;20258;-69
2021/01/15 07:06:19;;;;;;;9.38;6.63;;;1.40;99.90;;;;;;4928917;29;20356;-69
2021/01/15 07:08:53;;;;;;;7.68;6.45;;;1.40;99.90;;;;;;4935104;29;20232;-69
2021/01/15 07:11:22;;;;;;;7.75;6.38;;;1.40;99.90;;;;;;4925826;29;20241;-69
2021/01/15 07:13:53;;;;;;;10.23;6.30;;;1.40;99.90;;;;;;4916394;29;20214;-70
2021/01/15 07:16:28;;;;;;;11.65;7.47;;;1.40;99.90;;;;;;4930685;29;20217;-69
2021/01/15 07:19:10;;;;;;;9.07;7.15;;;1.40;99.90;;;;;;4918099;29;20206;-69
2021/01/15 07:21:38;;;;;;;12.15;7.40;;;1.40;99.90;;;;;;4912296;29;20290;-70
2021/01/15 07:24:08;;;;;;;9.30;7.57;;;1.30;99.90;;;;;;4898443;29;20218;-69
2021/01/15 07:26:39;;;;;;;7.22;6.47;;;1.40;99.90;;;;;;4934393;29;20213;-69
2021/01/15 07:29:07;;;;;;;8.40;6.97;;;1.30;99.90;;;;;;4932844;29;20263;-69
2021/01/15 07:31:38;;;;;;;8.98;6.68;;;1.40;99.90;;;;;;4935059;29;20230;-69
2021/01/15 07:34:09;;;;;;;15.10;7.72;;;1.30;99.90;;;;;;4936003;29;20218;-69
2021/01/15 07:36:37;;;;;;;13.52;7.20;;;1.30;99.90;;;;;;4934478;29;20218;-69
2021/01/15 07:39:06;;;;;;;12.40;7.88;;;1.30;99.90;;;;;;4934110;29;20226;-69
2021/01/15 07:41:43;;;;;;;12.18;7.68;;;1.30;99.90;;;;;;4935125;29;20226;-69
2021/01/15 07:44:37;;;;;;;8.25;6.85;;;1.30;99.90;;;;;;4918572;29;20210;-69
2021/01/15 07:47:03;;;;;;;9.95;6.18;;;1.30;99.90;;;;;;4928971;29;20233;-70
2021/01/15 07:49:43;;;;;;;9.07;6.68;;;1.30;99.90;;;;;;4929873;29;20227;-69
2021/01/15 07:52:11;;;;;;;9.52;6.68;;;1.30;99.90;;;;;;4928123;28;20240;-69
2021/01/15 07:54:59;;;;;;;10.43;6.93;;;1.30;99.90;;;;;;4928822;29;20258;-67
2021/01/15 07:57:25;;;;;;;11.05;7.53;;;1.30;99.90;;;;;;4916734;29;20269;-69
2021/01/15 07:59:52;;;;;;;10.25;7.53;;;1.30;99.90;;;;;;4928706;29;20197;-69
2021/01/15 08:02:19;;;;;;;8.45;6.80;;;1.40;99.90;;;;;;4910894;29;20242;-67
2021/01/15 08:04:45;;;;;;;10.25;7.30;;;1.30;99.90;;;;;;4912455;29;20577;-68
2021/01/15 08:07:18;;;;;;;10.73;8.18;;;1.30;99.90;;;;;;4915793;29;20210;-68
2021/01/15 08:09:44;;;;;;;12.07;7.95;;;1.40;99.90;;;;;;4916749;29;20718;-68
2021/01/15 08:12:11;;;;;;;9.23;7.75;;;1.30;99.90;;;;;;4916202;29;20611;-69
2021/01/15 08:14:38;;;;;;;9.02;7.28;;;1.30;99.90;;;;;;4915671;29;20214;-68
2021/01/15 08:17:10;;;;;;;11.45;6.88;;;1.40;99.90;;;;;;4923454;29;20217;-68
2021/01/15 08:19:37;;;;;;;8.70;7.18;;;1.40;99.90;;;;;;4936826;29;20206;-68
2021/01/15 08:22:07;;;;;;;9.25;7.30;;;1.40;99.90;;;;;;4933342;29;20230;-69
2021/01/15 08:24:33;;;;;;;11.77;8.80;;;1.40;99.90;;;;;;4935477;29;20212;-69
2021/01/15 08:26:59;;;;;;;10.40;9.32;;;1.40;99.90;;;;;;4934730;29;20202;-69
2021/01/15 08:29:28;;;;;;;15.07;8.32;;;1.40;99.90;;;;;;4923858;29;20270;-69
2021/01/15 08:31:56;;;;;;;13.68;9.50;;;1.40;99.90;;;;;;4933936;29;20226;-68
2021/01/15 08:34:29;;;;;;;10.73;7.72;;;1.40;99.90;;;;;;4923878;29;20671;-69
2021/01/15 08:36:58;;;;;;;10.75;7.68;;;1.40;99.90;;;;;;4927397;29;20198;-70
2021/01/15 08:39:24;;;;;;;11.25;7.97;;;1.40;99.90;;;;;;4933719;29;20558;-69
2021/01/15 08:41:53;;;;;;;11.05;8.40;;;1.30;99.90;;;;;;4923512;29;20682;-66
2021/01/15 08:44:23;;;;;;;11.15;7.30;;;1.30;99.90;;;;;;4923942;29;20214;-68
2021/01/15 08:46:51;;;;;;;8.90;7.28;;;1.30;99.90;;;;;;4938289;29;20572;-68
2021/01/15 08:49:17;;;;;;;11.50;8.32;;;1.30;99.90;;;;;;4925434;29;20218;-68
2021/01/15 08:51:49;;;;;;;9.85;7.68;;;1.30;99.90;;;;;;4936682;29;20314;-69
2021/01/15 08:54:18;;;;;;;9.68;7.65;;;1.30;99.90;;;;;;4925652;29;20203;-69
2021/01/15 08:56:46;;;;;;;15.40;9.23;;;1.30;99.90;;;;;;4937746;29;20221;-69
2021/01/15 08:59:14;;;;;;;10.90;7.70;;;1.30;99.90;;;;;;4931665;29;20214;-69
2021/01/15 09:01:42;;;;;;;12.20;8.88;;;1.30;99.90;;;;;;4916684;29;20238;-69
2021/01/15 09:04:10;;;;;;;13.95;8.40;;;1.30;99.90;;;;;;4919140;29;20635;-70
2021/01/15 09:06:38;;;;;;;10.90;7.85;;;1.30;99.90;;;;;;4918427;29;20684;-69
2021/01/15 09:09:07;;;;;;;12.98;8.13;;;1.30;99.90;;;;;;4918904;29;20309;-69
2021/01/15 09:11:34;;;;;;;15.45;8.93;;;1.30;99.90;;;;;;4917957;29;20241;-69
2021/01/15 09:14:02;;;;;;;11.85;7.88;;;1.30;99.90;;;;;;4909200;29;20563;-70
2021/01/15 09:16:29;;;;;;;13.80;8.27;;;1.30;99.90;;;;;;4926687;29;20203;-69
2021/01/15 09:19:03;;;;;;;10.00;7.90;;;1.20;99.90;;;;;;4924715;29;20207;-69
2021/01/15 09:21:30;;;;;;;15.38;8.48;;;1.30;99.90;;;;;;4928691;29;20703;-69
2021/01/15 09:23:56;;;;;;;11.43;7.97;;;1.30;99.90;;;;;;4935398;29;20206;-67
2021/01/15 09:26:23;;;;;;;13.43;8.75;;;1.30;99.90;;;;;;4940381;29;20226;-69
2021/01/15 09:28:49;;;;;;;13.45;8.35;;;1.30;99.90;;;;;;4921659;29;20223;-69
2021/01/15 09:31:17;;;;;;;12.10;8.90;;;1.30;99.90;;;;;;4922850;29;20226;-69
2021/01/15 09:33:49;;;;;;;13.77;8.80;;;1.30;99.90;;;;;;4929271;29;20214;-69
2021/01/15 09:36:22;;;;;;;14.30;8.32;;;1.30;99.90;;;;;;4923057;29;20223;-68
2021/01/15 09:38:49;;;;;;;12.95;8.73;;;1.30;99.90;;;;;;4928916;29;20199;-69
2021/01/15 09:41:15;;;;;;;9.40;7.53;;;1.30;99.90;;;;;;4923969;29;20588;-69
2021/01/15 09:43:42;;;;;;;13.85;8.60;;;1.30;99.90;;;;;;4942185;29;20210;-69
2021/01/15 09:46:08;;;;;;;12.90;10.23;;;1.30;99.90;;;;;;4928746;29;20274;-69
2021/01/15 09:48:35;;;;;;;15.00;10.40;;;1.30;99.90;;;;;;4904360;29;20493;-69
2021/01/15 09:51:01;;;;;;;15.38;10.43;;;1.30;99.90;;;;;;4929061;29;20237;-69
2021/01/15 09:53:27;;;;;;;13.68;9.50;;;1.30;99.90;;;;;;4935773;29;20215;-68
2021/01/15 09:55:54;;;;;;;12.35;8.18;;;1.30;99.90;;;;;;4919889;29;20215;-69
2021/01/15 09:58:20;;;;;;;10.07;7.50;;;1.30;99.90;;;;;;4919536;29;20202;-69
2021/01/15 10:00:46;;;;;;;14.48;8.80;;;1.30;99.90;;;;;;4920413;29;20634;-69
2021/01/15 10:03:12;;;;;;;12.18;8.57;;;1.30;99.90;;;;;;4919815;29;20219;-69
2021/01/15 10:05:40;;;;;;;12.70;7.95;;;1.30;99.90;;;;;;4923840;29;20202;-69
2021/01/15 10:08:06;;;;;;;12.00;7.88;;;1.20;99.90;;;;;;4937568;29;20257;-69
2021/01/15 10:10:32;;;;;;;13.07;8.00;;;1.20;99.90;;;;;;4929224;29;20235;-69
2021/01/15 10:12:59;;;;;;;10.55;8.18;;;1.20;99.90;;;;;;4917979;29;20214;-69
2021/01/15 10:15:25;;;;;;;11.88;9.02;;;1.20;99.90;;;;;;4918953;29;20207;-69
2021/01/15 10:17:51;;;;;;;9.90;8.13;;;1.30;99.90;;;;;;4918298;29;20218;-69
2021/01/15 10:20:20;;;;;;;12.60;8.07;;;1.30;99.90;;;;;;4922805;29;20562;-68
2021/01/15 10:22:46;;;;;;;13.20;9.18;;;1.20;99.90;;;;;;4936655;29;20224;-68
2021/01/15 10:25:13;;;;;;;15.18;8.90;;;1.30;99.90;;;;;;4933201;29;20641;-68
2021/01/15 10:27:39;;;;;;;10.65;7.85;;;1.30;99.90;;;;;;4918107;29;20218;-68
2021/01/15 10:30:08;;;;;;;14.10;8.43;;;1.30;99.90;;;;;;4919083;29;20342;-68
2021/01/15 10:32:34;;;;;;;11.40;7.90;;;1.30;99.90;;;;;;4917224;29;20297;-67
2021/01/15 10:35:01;;;;;;;9.77;6.90;;;1.30;99.90;;;;;;4918825;29;20218;-68
2021/01/15 10:37:27;;;;;;;12.38;8.30;;;1.30;99.90;;;;;;4936185;29;20301;-68
2021/01/15 10:39:54;;;;;;;12.15;8.00;;;1.30;99.90;;;;;;4933436;29;20214;-68
2021/01/15 10:42:20;;;;;;;12.98;7.85;;;1.30;99.90;;;;;;4917646;29;20259;-68
2021/01/15 10:44:47;;;;;;;12.20;8.00;;;1.30;99.90;;;;;;4919326;29;20210;-67
2021/01/15 10:47:14;;;;;;;11.13;7.30;;;1.40;99.90;;;;;;4939263;29;20563;-68
2021/01/15 10:49:41;;;;;;;10.45;8.18;;;1.30;99.90;;;;;;4937556;29;20217;-68
2021/01/15 10:52:12;;;;;;;12.52;8.30;;;1.30;99.90;;;;;;4938040;28;20588;-68
2021/01/15 10:54:38;;;;;;;16.48;8.88;;;1.30;99.90;;;;;;4925678;29;20232;-70
2021/01/15 10:57:05;;;;;;;14.85;7.95;;;1.30;99.90;;;;;;4927486;29;20206;-69
2021/01/15 10:59:31;;;;;;;11.38;7.82;;;1.30;99.90;;;;;;4923343;29;20972;-68
2021/01/15 11:01:57;;;;;;;13.55;8.77;;;1.30;99.90;;;;;;4923134;29;20257;-70
2021/01/15 11:04:24;;;;;;;11.73;8.35;;;1.30;99.90;;;;;;4922910;29;20317;-69
2021/01/15 11:06:53;;;;;;;11.13;8.07;;;1.30;99.90;;;;;;4927066;29;20202;-69
2021/01/15 11:09:20;;;;;;;11.13;8.13;;;1.30;99.90;;;;;;4922399;29;20298;-69
2021/01/15 11:11:47;;;;;;;15.07;7.72;;;1.30;99.90;;;;;;4923968;29;20223;-69
2021/01/15 11:14:13;;;;;;;10.93;7.95;;;1.40;99.90;;;;;;4923449;29;20230;-69
2021/01/15 11:16:39;;;;;;;11.70;7.35;;;1.40;99.90;;;;;;4926275;29;20203;-69
2021/01/15 11:19:06;;;;;;;11.50;8.07;;;1.30;99.90;;;;;;4923877;29;20308;-70
2021/01/15 11:21:33;;;;;;;11.85;7.75;;;1.40;99.90;;;;;;4922479;29;20222;-68
2021/01/15 11:23:59;;;;;;;13.70;8.77;;;1.30;99.90;;;;;;4920091;29;20230;-69
2021/01/15 11:26:28;;;;;;;12.40;8.35;;;1.30;99.90;;;;;;4930303;29;20273;-70
2021/01/15 11:28:55;;;;;;;13.68;8.23;;;1.30;99.90;;;;;;4923668;29;20245;-69
2021/01/15 11:31:22;;;;;;;9.23;6.63;;;1.30;99.90;;;;;;4921474;29;20354;-68
2021/01/15 11:33:48;;;;;;;14.38;8.52;;;1.30;99.90;;;;;;4932049;29;20202;-68
2021/01/15 11:36:15;;;;;;;11.32;7.93;;;1.40;99.90;;;;;;4920425;29;20213;-69
2021/01/15 11:38:43;;;;;;;13.68;7.55;;;1.40;99.90;;;;;;4931598;29;20202;-69
2021/01/15 11:41:13;;;;;;;9.93;7.78;;;1.40;99.90;;;;;;4922817;29;20226;-69
2021/01/15 11:43:39;;;;;;;11.88;8.00;;;1.40;99.90;;;;;;4930333;29;20206;-68
2021/01/15 11:46:06;;;;;;;10.70;7.40;;;1.30;99.90;;;;;;4931503;29;20206;-69
2021/01/15 11:48:33;;;;;;;13.77;7.30;;;1.30;99.90;;;;;;4935884;29;20229;-68
2021/01/15 11:51:00;;;;;;;10.38;8.13;;;1.30;99.90;;;;;;4936829;29;20237;-69
2021/01/15 11:53:31;;;;;;;9.52;6.88;;;1.30;99.90;;;;;;4919714;29;20211;-70
2021/01/15 11:56:00;;;;;;;9.60;7.47;;;1.40;99.90;;;;;;4924028;29;20210;-69
2021/01/15 11:58:26;;;;;;;10.95;8.40;;;1.40;99.90;;;;;;4920329;28;20215;-70
2021/01/15 12:00:52;;;;;;;12.43;8.32;;;1.40;99.90;;;;;;4917762;29;20297;-69
2021/01/15 12:03:18;;;;;;;11.20;7.65;;;1.40;99.90;;;;;;4918485;29;20206;-69
2021/01/15 12:05:49;;;;;;;10.00;7.20;;;1.40;99.90;;;;;;4921855;29;20233;-69
2021/01/15 12:08:15;;;;;;;10.50;7.50;;;1.40;99.90;;;;;;4926856;29;20293;-69
2021/01/15 12:10:41;;;;;;;12.82;8.00;;;1.40;99.90;;;;;;4935289;28;20312;-69
2021/01/15 12:13:08;;;;;;;11.63;8.95;;;1.50;99.90;;;;;;4930429;29;20201;-69
2021/01/15 12:15:34;;;;;;;9.85;7.18;;;1.40;99.90;;;;;;4916716;29;20675;-69
2021/01/15 12:18:00;;;;;;;12.75;7.95;;;1.40;99.90;;;;;;4922390;29;20211;-69
2021/01/15 12:20:27;;;;;;;13.48;8.32;;;1.40;99.90;;;;;;4936505;29;20232;-71
2021/01/15 12:22:53;;;;;;;11.98;7.70;;;1.40;99.90;;;;;;4931771;28;20577;-69
2021/01/15 12:25:19;;;;;;;9.27;7.22;;;1.40;99.90;;;;;;4933301;29;20210;-69
2021/01/15 12:27:45;;;;;;;9.25;7.53;;;1.40;99.90;;;;;;4922506;29;20686;-69
2021/01/15 12:30:14;;;;;;;15.85;7.30;;;1.40;99.90;;;;;;4917557;29;20223;-68
2021/01/15 12:32:43;;;;;;;10.35;8.18;;;1.40;99.90;;;;;;4929277;29;20206;-70
2021/01/15 12:35:10;;;;;;;10.93;7.40;;;1.40;99.90;;;;;;4925852;29;20211;-69
2021/01/15 12:37:36;;;;;;;10.73;7.70;;;1.40;99.90;;;;;;4919533;29;20279;-69
2021/01/15 12:40:03;;;;;;;14.73;8.02;;;1.40;99.90;;;;;;4917547;29;20211;-70
2021/01/15 12:42:29;;;;;;;14.63;8.30;;;1.30;99.90;;;;;;4916120;29;20230;-69
2021/01/15 12:44:55;;;;;;;8.70;6.78;;;1.30;99.90;;;;;;4916540;29;20279;-69
2021/01/15 12:47:22;;;;;;;10.80;6.78;;;1.30;99.90;;;;;;4917096;29;20203;-69
2021/01/15 12:49:48;;;;;;;12.05;7.03;;;1.30;99.90;;;;;;4915426;29;20222;-68
2021/01/15 12:52:18;;;;;;;9.23;7.15;;;1.30;99.90;;;;;;4918673;29;20241;-69
2021/01/15 12:54:44;;;;;;;10.10;7.45;;;1.30;99.90;;;;;;4915923;29;20206;-68
2021/01/15 12:57:11;;;;;;;9.98;7.40;;;1.30;99.90;;;;;;4915489;29;20659;-69
2021/01/15 12:59:37;;;;;;;12.38;8.70;;;1.30;99.90;;;;;;4914648;29;20210;-69
2021/01/15 13:02:03;;;;;;;12.33;8.50;;;1.30;99.90;;;;;;4916342;29;21043;-69
2021/01/15 13:04:30;;;;;;;7.95;7.15;;;1.30;99.90;;;;;;4918928;29;20482;-68
2021/01/15 13:06:56;;;;;;;11.98;6.82;;;1.30;99.90;;;;;;4931884;29;20209;-68
2021/01/15 13:09:23;;;;;;;10.40;6.95;;;1.30;99.90;;;;;;4931369;29;20226;-68
2021/01/15 13:11:49;;;;;;;7.40;6.57;;;1.30;99.90;;;;;;4923717;29;20639;-68
2021/01/15 13:14:15;;;;;;;9.45;6.90;;;1.30;99.90;;;;;;4919287;29;20214;-69
2021/01/15 13:16:41;;;;;;;7.78;6.60;;;1.30;99.90;;;;;;4920118;29;20203;-68
2021/01/15 13:19:07;;;;;;;7.20;5.97;;;1.20;99.90;;;;;;4921580;29;20306;-69
2021/01/15 13:21:34;;;;;;;7.75;6.28;;;1.20;99.90;;;;;;4918123;29;20233;-71
2021/01/15 13:24:00;;;;;;;8.60;7.72;;;1.10;99.90;;;;;;4920479;29;20218;-68
2021/01/15 13:26:26;;;;;;;8.98;5.85;;;1.10;99.90;;;;;;4918934;29;20221;-68
2021/01/15 13:28:52;;;;;;;9.93;6.03;;;1.10;99.90;;;;;;4919003;29;20221;-69
2021/01/15 13:31:18;;;;;;;7.13;5.70;;;1.10;99.90;;;;;;4914629;29;20230;-69
2021/01/15 13:33:45;;;;;;;10.77;6.97;;;1.00;99.90;;;;;;4918125;29;20584;-69
2021/01/15 13:36:11;;;;;;;9.60;6.28;;;1.00;99.90;;;;;;4921123;29;20208;-69
2021/01/15 13:38:39;;;;;;;7.00;5.53;;;1.00;99.90;;;;;;4921872;29;20202;-69
2021/01/15 13:41:05;;;;;;;7.55;5.53;;;1.00;99.90;;;;;;4929799;29;20255;-67
2021/01/15 13:43:33;;;;;;;6.07;5.20;;;1.00;99.90;;;;;;4920023;29;20281;-69
2021/01/15 13:46:00;;;;;;;8.93;6.10;;;1.00;99.90;;;;;;4923045;29;20222;-69
2021/01/15 13:48:26;;;;;;;9.63;6.15;;;1.00;99.90;;;;;;4919041;29;20207;-68
2021/01/15 13:50:52;;;;;;;5.65;5.15;;;1.00;99.90;;;;;;4918779;29;20332;-69
2021/01/15 13:53:21;;;;;;;6.00;5.53;;;0.90;99.90;;;;;;4918461;29;20225;-68
2021/01/15 13:55:50;;;;;;;9.65;6.35;;;0.90;99.90;;;;;;4919107;29;20234;-69
2021/01/15 13:58:16;;;;;;;7.55;6.03;;;0.90;99.90;;;;;;4919164;29;20206;-69
2021/01/15 14:00:42;;;;;;;6.13;5.30;;;0.90;99.90;;;;;;4918449;29;20226;-69
2021/01/15 14:03:09;;;;;;;6.28;5.68;;;0.90;99.90;;;;;;4918138;29;20275;-70
2021/01/15 14:05:37;;;;;;;7.32;5.28;;;0.90;99.90;;;;;;4918309;29;20265;-69
2021/01/15 14:08:03;;;;;;;3.85;3.42;;;0.90;99.90;;;;;;4918333;29;20258;-68
2021/01/15 14:10:29;;;;;;;5.90;5.30;;;0.90;99.90;;;;;;4925806;29;20660;-69
2021/01/15 14:12:57;;;;;;;8.15;5.50;;;0.90;99.90;;;;;;4922892;29;20206;-69
2021/01/15 14:15:24;;;;;;;5.70;5.10;;;1.00;99.90;;;;;;4920077;29;20293;-69
2021/01/15 14:17:50;;;;;;;8.25;6.10;;;1.00;99.90;;;;;;4919388;29;20206;-68
2021/01/15 14:20:16;;;;;;;6.65;5.95;;;1.00;99.90;;;;;;4917604;29;20217;-68
2021/01/15 14:22:42;;;;;;;4.60;4.30;;;1.00;99.90;;;;;;4921500;29;20206;-69
2021/01/15 14:25:10;;;;;;;5.82;5.20;;;1.00;99.90;;;;;;4927408;29;20211;-68
2021/01/15 14:27:37;;;;;;;5.57;4.90;;;1.00;99.90;;;;;;4923094;29;20202;-68
2021/01/15 14:30:05;;;;;;;8.48;6.68;;;1.00;99.90;;;;;;4936813;29;20229;-69
2021/01/15 14:32:31;;;;;;;7.82;6.82;;;1.00;99.90;;;;;;4917615;29;20255;-69
2021/01/15 14:34:57;;;;;;;6.82;5.45;;;1.00;99.90;;;;;;4917153;29;20203;-69
2021/01/15 14:37:26;;;;;;;9.32;5.95;;;1.00;99.90;;;;;;4917246;29;20683;-69
2021/01/15 14:39:52;;;;;;;6.05;5.45;;;1.10;99.90;;;;;;4920148;29;20619;-68
2021/01/15 14:42:19;;;;;;;7.70;5.75;;;1.00;99.90;;;;;;4923641;29;20588;-68
2021/01/15 14:44:46;;;;;;;8.32;6.95;;;1.00;99.90;;;;;;4900828;29;20242;-68
2021/01/15 14:47:14;;;;;;;8.18;5.93;;;0.90;99.90;;;;;;4918293;29;20210;-68
2021/01/15 14:49:40;;;;;;;5.35;4.28;;;0.90;99.90;;;;;;4916886;29;20690;-70
2021/01/15 14:52:07;;;;;;;4.43;4.00;;;0.90;99.90;;;;;;4928223;29;20230;-67
2021/01/15 14:54:33;;;;;;;3.85;3.65;;;0.90;99.90;;;;;;4936400;29;20556;-70
2021/01/15 14:57:03;;;;;;;4.80;4.40;;;0.80;99.90;;;;;;4917092;29;20238;-68
2021/01/15 14:59:30;;;;;;;3.97;3.67;;;0.80;99.90;;;;;;4917524;29;20206;-69
2021/01/15 15:01:56;;;;;;;3.20;3.10;;;0.80;99.90;;;;;;4921174;29;20238;-69
2021/01/15 15:04:25;;;;;;;4.93;4.63;;;0.80;99.90;;;;;;4916982;29;20226;-68
2021/01/15 15:06:51;;;;;;;4.85;3.60;;;0.80;99.90;;;;;;4917059;29;20298;-68
2021/01/15 15:09:17;;;;;;;4.32;3.63;;;0.80;99.90;;;;;;4917511;29;20235;-69
2021/01/15 15:11:44;;;;;;;3.47;2.90;;;0.70;99.90;;;;;;4922887;29;20230;-69
2021/01/15 15:14:10;;;;;;;3.47;2.85;;;0.70;99.90;;;;;;4917112;29;20682;-68
2021/01/15 15:16:36;;;;;;;2.30;2.20;;;0.60;99.90;;;;;;4924695;29;20265;-67
2021/01/15 15:19:03;;;;;;;2.92;2.72;;;0.60;99.90;;;;;;4932271;29;20579;-67
2021/01/15 15:21:30;;;;;;;3.83;3.63;;;0.50;99.90;;;;;;4926122;29;20309;-69
2021/01/15 15:23:56;;;;;;;2.50;1.90;;;0.50;99.90;;;;;;4924320;29;20260;-67
2021/01/15 15:26:22;;;;;;;2.35;2.15;;;0.50;99.90;;;;;;4925967;29;20534;-69
2021/01/15 15:28:50;;;;;;;3.50;3.10;;;0.50;99.90;;;;;;4917277;29;20229;-67
2021/01/15 15:31:16;;;;;;;3.10;2.80;;;0.40;99.90;;;;;;4916321;29;20256;-67
2021/01/15 15:33:44;;;;;;;2.75;2.55;;;0.40;99.90;;;;;;4915767;29;20222;-66
2021/01/15 15:36:14;;;;;;;1.90;1.80;;;0.40;99.90;;;;;;4919784;29;20568;-68
2021/01/15 15:38:41;;;;;;;2.50;2.40;;;0.40;99.90;;;;;;4916098;29;20199;-68
2021/01/15 15:41:07;;;;;;;2.88;2.75;;;0.40;99.90;;;;;;4928996;29;20237;-68
2021/01/15 15:43:33;;;;;;;3.72;3.53;;;0.40;99.90;;;;;;4934863;29;20634;-67
2021/01/15 15:46:00;;;;;;;2.50;2.30;;;0.40;99.90;;;;;;4921810;29;20556;-68
2021/01/15 15:48:27;;;;;;;2.75;2.50;;;0.40;99.90;;;;;;4935315;29;20216;-67
2021/01/15 15:50:53;;;;;;;1.90;1.80;;;0.40;99.90;;;;;;4927147;29;20626;-67
2021/01/15 15:53:19;;;;;;;2.53;1.88;;;0.20;99.90;;;;;;4929871;29;20206;-66
2021/01/15 15:55:46;;;;;;;2.40;2.10;;;0.10;99.90;;;;;;4919628;29;20206;-68
2021/01/15 15:58:12;;;;;;;1.35;1.17;;;0.10;99.90;;;;;;4918991;29;20221;-68
2021/01/15 16:00:38;;;;;;;2.83;2.45;;;0.00;99.90;;;;;;4934595;29;20261;-67
2021/01/15 16:03:05;;;;;;;2.70;2.50;;;0.00;99.90;;;;;;4930377;29;20212;-67
2021/01/15 16:05:32;;;;;;;2.40;2.30;;;0.00;99.90;;;;;;4923074;29;20207;-67
2021/01/15 16:07:59;;;;;;;5.05;1.90;;;0.00;99.90;;;;;;4928532;29;20249;-68
2021/01/15 16:10:25;;;;;;;2.15;2.00;;;0.00;99.90;;;;;;4915382;29;20770;-68
2021/01/15 16:12:52;;;;;;;2.15;2.05;;;0.00;99.90;;;;;;4923592;29;20202;-67
2021/01/15 16:15:18;;;;;;;2.25;2.15;;;0.00;99.90;;;;;;4924511;29;20206;-68
2021/01/15 16:17:44;;;;;;;3.00;1.50;;;0.00;99.90;;;;;;4916493;29;20203;-69
2021/01/15 16:20:12;;;;;;;1.98;1.88;;;0.00;99.90;;;;;;4916031;29;20711;-69
2021/01/15 16:22:40;;;;;;;1.75;1.65;;;0.00;99.90;;;;;;4925308;29;20288;-67
2021/01/15 16:25:07;;;;;;;3.30;2.33;;;0.00;99.90;;;;;;4917021;29;20627;-67
2021/01/15 16:27:34;;;;;;;2.28;2.17;;;0.00;99.90;;;;;;4917241;29;20223;-67
2021/01/15 16:30:02;;;;;;;2.00;2.00;;;0.00;99.90;;;;;;4915560;29;20310;-69
2021/01/15 16:32:32;;;;;;;1.95;1.85;;;0.00;99.90;;;;;;4930363;28;20234;-67
2021/01/15 16:34:58;;;;;;;3.03;2.83;;;0.00;99.90;;;;;;4919167;29;20199;-67
2021/01/15 16:37:24;;;;;;;2.25;2.15;;;0.00;99.90;;;;;;4920782;29;20214;-67
2021/01/15 16:39:51;;;;;;;2.33;2.13;;;0.00;99.90;;;;;;4919593;29;20266;-68
2021/01/15 16:42:17;;;;;;;2.72;2.63;;;0.00;99.90;;;;;;4933157;29;20229;-68
2021/01/15 16:44:43;;;;;;;4.72;2.45;;;0.00;99.90;;;;;;4935625;29;20258;-69
2021/01/15 16:47:10;;;;;;;2.88;2.40;;;0.00;99.90;;;;;;4931671;29;20233;-67
2021/01/15 16:49:38;;;;;;;1.67;1.58;;;0.00;99.90;;;;;;4920325;29;20230;-66
2021/01/15 16:52:04;;;;;;;2.10;1.90;;;0.00;99.90;;;;;;4918488;29;20592;-68
2021/01/15 16:54:31;;;;;;;2.92;2.80;;;-0.10;99.90;;;;;;4919821;29;20217;-67
2021/01/15 16:56:57;;;;;;;2.10;2.00;;;0.00;99.90;;;;;;4915110;29;20207;-68
2021/01/15 16:59:24;;;;;;;3.75;2.20;;;0.00;99.90;;;;;;4910673;29;20221;-67
2021/01/15 17:01:51;;;;;;;4.47;4.18;;;-0.10;99.90;;;;;;4921488;29;20278;-68
2021/01/15 17:04:18;;;;;;;2.45;2.30;;;0.00;99.90;;;;;;4918806;29;22035;-69
2021/01/15 17:06:49;;;;;;;2.83;2.63;;;0.00;99.90;;;;;;4917946;29;20937;-67
2021/01/15 17:09:15;;;;;;;2.90;2.80;;;0.00;99.90;;;;;;4918945;29;20233;-69
2021/01/15 17:11:42;;;;;;;3.00;2.80;;;0.10;99.90;;;;;;4918278;29;20304;-67
2021/01/15 17:14:08;;;;;;;3.20;3.00;;;0.10;99.90;;;;;;4918835;29;20620;-68
2021/01/15 17:16:34;;;;;;;2.75;2.65;;;0.10;99.90;;;;;;4919165;29;20216;-68
2021/01/15 17:19:00;;;;;;;2.42;2.33;;;0.10;99.90;;;;;;4918879;29;20849;-68
2021/01/15 17:21:27;;;;;;;8.48;3.40;;;0.10;99.90;;;;;;4917487;29;20272;-68
2021/01/15 17:23:53;;;;;;;3.60;3.13;;;0.20;99.90;;;;;;4916635;29;20218;-68
2021/01/15 17:26:19;;;;;;;3.80;3.63;;;0.20;99.90;;;;;;4917635;29;20231;-69
2021/01/15 17:28:46;;;;;;;4.65;4.20;;;0.20;99.90;;;;;;4918634;29;20254;-68
2021/01/15 17:31:12;;;;;;;4.07;3.88;;;0.20;99.90;;;;;;4931578;29;20230;-70
2021/01/15 17:33:38;;;;;;;3.95;3.65;;;0.20;99.90;;;;;;4919153;29;20689;-68
2021/01/15 17:36:05;;;;;;;3.75;3.50;;;0.20;99.90;;;;;;4928950;29;20543;-67
2021/01/15 17:38:35;;;;;;;3.53;3.15;;;0.20;99.90;;;;;;4918670;29;20203;-68
2021/01/15 17:41:02;;;;;;;4.20;3.85;;;0.20;99.90;;;;;;4920007;29;20226;-68
2021/01/15 17:43:28;;;;;;;3.50;3.30;;;0.20;99.90;;;;;;4918422;29;20679;-67
2021/01/15 17:45:55;;;;;;;3.70;3.50;;;0.20;99.90;;;;;;4930182;29;20671;-68
2021/01/15 17:48:21;;;;;;;7.43;4.40;;;0.20;99.90;;;;;;4937182;29;20214;-69
2021/01/15 17:50:47;;;;;;;5.38;4.18;;;0.30;99.90;;;;;;4932170;29;20257;-68
2021/01/15 17:53:13;;;;;;;5.45;5.05;;;0.20;99.90;;;;;;4936273;29;20291;-69
2021/01/15 17:55:45;;;;;;;6.68;6.10;;;0.20;99.90;;;;;;4932382;29;20209;-68
2021/01/15 17:58:11;;;;;;;6.97;6.43;;;0.20;99.90;;;;;;4933847;29;20797;-67
2021/01/15 18:00:39;;;;;;;6.90;6.38;;;0.30;99.90;;;;;;4918818;29;20226;-67